Time;durP1;ratioP1;P1;durP2;ratioP2;P2;SDS_P1;SDS_P2;PMS_P1;PMS_P2;Temp;Humidity;BMP_temperature;BMP_pressure;BME280_temperature;BME280_humidity;BME280_pressure;Samples;Min_cycle;Max_cycle;Signal;HPM_P1;HPM_P2
2021/07/01 00:00:52;;;;;;;46.15;18.45;;;14.30;99.90;;;;;;5095081;28;20062;-70
2021/07/01 00:03:18;;;;;;;33.85;16.83;;;14.20;99.90;;;;;;5095215;28;20048;-70
2021/07/01 00:05:44;;;;;;;41.70;18.45;;;14.20;99.90;;;;;;5094673;28;20036;-70
2021/07/01 00:08:10;;;;;;;43.45;17.88;;;14.20;99.90;;;;;;5094852;28;20111;-70
2021/07/01 00:10:36;;;;;;;35.85;16.50;;;14.20;99.90;;;;;;5094761;28;20051;-70
2021/07/01 00:13:02;;;;;;;40.17;17.23;;;14.20;99.90;;;;;;5094619;28;20036;-70
2021/07/01 00:15:30;;;;;;;34.00;16.90;;;14.30;99.90;;;;;;5094588;28;20370;-70
2021/07/01 00:17:56;;;;;;;42.75;17.85;;;14.30;99.90;;;;;;5093417;28;20046;-70
2021/07/01 00:20:23;;;;;;;35.45;15.95;;;14.20;99.90;;;;;;5094197;28;20036;-70
2021/07/01 00:22:50;;;;;;;43.83;17.10;;;14.20;99.90;;;;;;5094381;28;20503;-70
2021/07/01 00:25:16;;;;;;;34.00;16.65;;;14.20;99.90;;;;;;5094324;28;20544;-70
2021/07/01 00:27:42;;;;;;;42.20;17.63;;;14.20;99.90;;;;;;5094603;28;20107;-70
2021/07/01 00:30:09;;;;;;;40.72;16.73;;;14.20;99.90;;;;;;5092794;28;20135;-70
2021/07/01 00:32:36;;;;;;;41.65;17.52;;;14.20;99.90;;;;;;5095121;28;20032;-70
2021/07/01 00:35:04;;;;;;;42.15;18.00;;;14.20;99.90;;;;;;5094015;28;20070;-70
2021/07/01 00:37:32;;;;;;;36.97;18.02;;;14.20;99.90;;;;;;5094323;28;20511;-71
2021/07/01 00:40:02;;;;;;;36.28;18.02;;;14.20;99.90;;;;;;5093899;28;20044;-71
2021/07/01 00:42:28;;;;;;;43.00;18.77;;;14.20;99.90;;;;;;5094942;28;20032;-71
2021/07/01 00:44:53;;;;;;;42.40;17.45;;;14.20;99.90;;;;;;5094650;28;20047;-70
2021/07/01 00:47:19;;;;;;;42.35;17.83;;;14.20;99.90;;;;;;5094581;28;20036;-70
2021/07/01 00:49:45;;;;;;;44.55;17.40;;;14.20;99.90;;;;;;5093598;28;20047;-70
2021/07/01 00:52:11;;;;;;;38.75;18.02;;;14.20;99.90;;;;;;5093755;28;20398;-70
2021/07/01 00:54:37;;;;;;;42.45;17.38;;;14.20;99.90;;;;;;5093939;28;20040;-70
2021/07/01 00:57:08;;;;;;;39.58;18.77;;;14.20;99.90;;;;;;5094135;28;20044;-70
2021/07/01 00:59:35;;;;;;;35.63;17.60;;;14.10;99.90;;;;;;5093031;28;20044;-70
2021/07/01 01:02:00;;;;;;;46.22;19.23;;;14.10;99.90;;;;;;5093656;28;20066;-70
2021/07/01 01:04:26;;;;;;;35.05;18.05;;;14.10;99.90;;;;;;5094120;28;20047;-70
2021/07/01 01:06:52;;;;;;;34.13;16.95;;;14.10;99.90;;;;;;5094201;28;20062;-70
2021/07/01 01:09:18;;;;;;;36.85;18.45;;;14.20;99.90;;;;;;5093468;28;20040;-71
2021/07/01 01:11:43;;;;;;;36.35;17.98;;;14.20;99.90;;;;;;5093467;28;20032;-70
2021/07/01 01:14:10;;;;;;;41.50;19.40;;;14.20;99.90;;;;;;5094011;28;20430;-70
2021/07/01 01:16:35;;;;;;;41.35;19.20;;;14.20;99.90;;;;;;5093619;28;20040;-70
2021/07/01 01:19:01;;;;;;;44.35;19.13;;;14.10;99.90;;;;;;5093447;28;20039;-70
2021/07/01 01:21:28;;;;;;;39.60;19.17;;;14.20;99.90;;;;;;5093619;28;20032;-70
2021/07/01 01:23:55;;;;;;;34.05;16.35;;;14.20;99.90;;;;;;5093373;28;20043;-70
2021/07/01 01:26:21;;;;;;;34.60;18.25;;;14.20;99.90;;;;;;5094120;28;20050;-70
2021/07/01 01:28:51;;;;;;;35.88;17.35;;;14.20;99.90;;;;;;5093567;28;20120;-70
2021/07/01 01:31:17;;;;;;;36.08;18.98;;;14.20;99.90;;;;;;5093421;28;20051;-70
2021/07/01 01:33:44;;;;;;;40.90;17.02;;;14.20;99.90;;;;;;5093983;28;20040;-70
2021/07/01 01:36:10;;;;;;;41.20;18.20;;;14.30;99.90;;;;;;5093830;28;20118;-70
2021/07/01 01:38:37;;;;;;;37.45;17.58;;;14.30;99.90;;;;;;5093256;28;20048;-70
2021/07/01 01:41:03;;;;;;;33.95;17.02;;;14.30;99.90;;;;;;5093384;28;20047;-70
2021/07/01 01:43:29;;;;;;;32.10;16.52;;;14.30;99.90;;;;;;5093234;28;20036;-70
2021/07/01 01:45:55;;;;;;;34.88;18.17;;;14.30;99.90;;;;;;5093970;28;20093;-70
2021/07/01 01:48:22;;;;;;;29.90;16.25;;;14.30;99.90;;;;;;5093256;28;20036;-70
2021/07/01 01:50:48;;;;;;;35.50;16.42;;;14.30;99.90;;;;;;5093438;28;20072;-70
2021/07/01 01:53:14;;;;;;;32.50;15.88;;;14.30;99.90;;;;;;5093139;28;20443;-70
2021/07/01 01:55:40;;;;;;;26.98;16.13;;;14.30;99.90;;;;;;5093132;28;20040;-70
2021/07/01 01:58:07;;;;;;;33.50;16.73;;;14.30;99.90;;;;;;5093741;28;20040;-70
2021/07/01 02:00:34;;;;;;;33.83;16.10;;;14.30;99.90;;;;;;5092929;28;20088;-70
2021/07/01 02:03:00;;;;;;;29.27;15.90;;;14.30;99.90;;;;;;5093171;28;20438;-70
2021/07/01 02:05:29;;;;;;;32.75;17.23;;;14.30;99.90;;;;;;5093093;28;20426;-70
2021/07/01 02:07:55;;;;;;;35.13;17.45;;;14.30;99.90;;;;;;5093147;28;20036;-70
2021/07/01 02:10:23;;;;;;;36.30;18.83;;;14.30;99.90;;;;;;5092650;28;20047;-70
2021/07/01 02:12:50;;;;;;;35.88;19.00;;;14.40;99.90;;;;;;5095370;28;20032;-70
2021/07/01 02:15:17;;;;;;;31.50;17.08;;;14.30;99.90;;;;;;5097369;28;20050;-70
2021/07/01 02:17:44;;;;;;;46.67;20.73;;;14.30;99.90;;;;;;5096821;28;20445;-70
2021/07/01 02:20:12;;;;;;;41.15;21.00;;;14.40;99.90;;;;;;5096819;28;20036;-70
2021/07/01 02:22:39;;;;;;;42.28;20.38;;;14.40;99.90;;;;;;5095705;28;20097;-70
2021/07/01 02:25:07;;;;;;;43.13;20.55;;;14.40;99.90;;;;;;5096680;28;20072;-70
2021/07/01 02:27:33;;;;;;;48.13;21.05;;;14.40;99.90;;;;;;5097129;28;20499;-70
2021/07/01 02:30:00;;;;;;;47.58;22.60;;;14.40;99.90;;;;;;5096189;28;20036;-70
2021/07/01 02:32:26;;;;;;;47.58;22.73;;;14.40;99.90;;;;;;5096765;28;20032;-70
2021/07/01 02:34:52;;;;;;;52.55;23.95;;;14.40;99.90;;;;;;5096761;28;20040;-70
2021/07/01 02:37:19;;;;;;;49.92;24.20;;;14.40;99.90;;;;;;5097039;28;20068;-70
2021/07/01 02:39:45;;;;;;;55.47;24.98;;;14.40;99.90;;;;;;5096085;28;20051;-70
2021/07/01 02:42:11;;;;;;;44.95;23.13;;;14.40;99.90;;;;;;5096248;28;20032;-70
2021/07/01 02:44:36;;;;;;;47.03;23.70;;;14.40;99.90;;;;;;5096276;28;20514;-70
2021/07/01 02:47:02;;;;;;;53.47;23.75;;;14.50;99.90;;;;;;5096447;28;20036;-70
2021/07/01 02:49:28;;;;;;;50.78;23.98;;;14.50;99.90;;;;;;5095965;28;20062;-71
2021/07/01 02:51:54;;;;;;;57.38;24.98;;;14.50;99.90;;;;;;5096604;28;20388;-70
2021/07/01 02:54:21;;;;;;;50.10;23.95;;;14.50;99.90;;;;;;5096619;28;20084;-70
2021/07/01 02:56:48;;;;;;;51.45;24.45;;;14.50;99.90;;;;;;5096670;28;20032;-71
2021/07/01 02:59:16;;;;;;;51.00;23.45;;;14.50;99.90;;;;;;5095772;28;20073;-71
2021/07/01 03:01:43;;;;;;;49.10;23.55;;;14.50;99.90;;;;;;5095975;28;20043;-70
2021/07/01 03:04:09;;;;;;;52.22;23.17;;;14.50;99.90;;;;;;5096265;28;20043;-70
2021/07/01 03:06:35;;;;;;;57.40;25.48;;;14.50;99.90;;;;;;5096263;28;20047;-71
2021/07/01 03:09:02;;;;;;;54.80;24.10;;;14.50;99.90;;;;;;5095824;28;20077;-71
2021/07/01 03:11:28;;;;;;;50.20;24.58;;;14.50;99.90;;;;;;5095573;28;20032;-71
2021/07/01 03:13:54;;;;;;;47.03;23.15;;;14.50;99.90;;;;;;5095625;28;20043;-70
2021/07/01 03:16:20;;;;;;;57.42;23.88;;;14.50;99.90;;;;;;5096112;28;20047;-70
2021/07/01 03:18:47;;;;;;;57.45;24.00;;;14.50;99.90;;;;;;5095517;28;20388;-71
2021/07/01 03:21:14;;;;;;;55.05;23.20;;;14.50;99.90;;;;;;5096075;28;20046;-70
2021/07/01 03:23:39;;;;;;;49.88;23.75;;;14.50;99.90;;;;;;5095132;28;20511;-70
2021/07/01 03:26:05;;;;;;;55.58;25.17;;;14.50;99.90;;;;;;5095631;28;20036;-70
2021/07/01 03:28:31;;;;;;;48.00;23.27;;;14.50;99.90;;;;;;5095352;28;20094;-71
2021/07/01 03:30:56;;;;;;;54.08;23.42;;;14.50;99.90;;;;;;5077758;28;20044;-70
2021/07/01 03:33:22;;;;;;;57.35;25.15;;;14.50;99.90;;;;;;5095736;28;20361;-70
2021/07/01 03:35:48;;;;;;;51.58;25.55;;;14.50;99.90;;;;;;5095721;28;20142;-70
2021/07/01 03:38:14;;;;;;;57.40;25.75;;;14.50;99.90;;;;;;5095884;28;20360;-70
2021/07/01 03:40:39;;;;;;;50.95;26.27;;;14.50;99.90;;;;;;5095379;28;20040;-71
2021/07/01 03:43:05;;;;;;;51.95;24.17;;;14.50;99.90;;;;;;5095524;28;20109;-71
2021/07/01 03:45:31;;;;;;;58.03;24.77;;;14.50;99.90;;;;;;5095095;28;20146;-70
2021/07/01 03:47:56;;;;;;;61.35;25.83;;;14.50;99.90;;;;;;5095692;28;20067;-70
2021/07/01 03:50:22;;;;;;;60.40;25.85;;;14.50;99.90;;;;;;5095235;28;20047;-71
2021/07/01 03:52:48;;;;;;;56.58;25.55;;;14.50;99.90;;;;;;5094929;28;20036;-70
2021/07/01 03:55:14;;;;;;;55.00;24.83;;;14.60;99.90;;;;;;5095347;28;20111;-71
2021/07/01 03:57:39;;;;;;;51.15;24.13;;;14.50;99.90;;;;;;5094832;28;20122;-70
2021/07/01 04:00:07;;;;;;;57.15;25.73;;;14.50;99.90;;;;;;5094878;28;20048;-70
2021/07/01 04:02:33;;;;;;;64.05;26.20;;;14.50;99.90;;;;;;5095130;28;20108;-70
2021/07/01 04:04:59;;;;;;;55.70;26.25;;;14.50;99.90;;;;;;5094929;28;20491;-70
2021/07/01 04:07:25;;;;;;;58.47;25.65;;;14.50;99.90;;;;;;5095326;28;20032;-70
2021/07/01 04:09:51;;;;;;;59.00;26.58;;;14.50;99.90;;;;;;5094631;28;20068;-71
2021/07/01 04:12:17;;;;;;;61.65;26.83;;;14.50;99.90;;;;;;5094627;28;20109;-70
2021/07/01 04:14:43;;;;;;;61.08;27.80;;;14.50;99.90;;;;;;5094479;28;20484;-70
2021/07/01 04:17:09;;;;;;;75.40;28.98;;;14.60;99.90;;;;;;5094623;28;20036;-70
2021/07/01 04:19:35;;;;;;;72.05;27.90;;;14.60;99.90;;;;;;5094335;28;20036;-70
2021/07/01 04:22:01;;;;;;;53.83;24.98;;;14.60;99.90;;;;;;5095036;28;20036;-69
2021/07/01 04:24:27;;;;;;;62.35;29.05;;;14.60;99.90;;;;;;5094550;28;20142;-69
2021/07/01 04:26:52;;;;;;;61.03;27.55;;;14.60;99.90;;;;;;5094947;28;20052;-69
2021/07/01 04:29:20;;;;;;;63.03;27.42;;;14.60;99.90;;;;;;5094342;28;20036;-69
2021/07/01 04:31:46;;;;;;;56.17;26.90;;;14.60;99.90;;;;;;5094667;28;20093;-69
2021/07/01 04:34:12;;;;;;;68.10;25.77;;;14.60;99.90;;;;;;5093958;28;20426;-69
2021/07/01 04:36:38;;;;;;;67.60;28.75;;;14.60;99.90;;;;;;5094687;28;20111;-69
2021/07/01 04:39:04;;;;;;;65.18;25.92;;;14.60;99.90;;;;;;5094381;28;20036;-69
2021/07/01 04:41:30;;;;;;;55.83;25.63;;;14.60;99.90;;;;;;5094097;28;20032;-69
2021/07/01 04:43:55;;;;;;;61.72;26.80;;;14.70;99.90;;;;;;5094317;28;20097;-69
2021/07/01 04:46:21;;;;;;;65.80;25.63;;;14.70;99.90;;;;;;5094076;28;20040;-70
2021/07/01 04:48:47;;;;;;;62.10;26.00;;;14.60;99.90;;;;;;5094223;28;20111;-69
2021/07/01 04:51:13;;;;;;;60.28;25.67;;;14.70;99.90;;;;;;5092900;28;20039;-69
2021/07/01 04:53:40;;;;;;;54.30;26.65;;;14.70;99.90;;;;;;5093832;28;20036;-69
2021/07/01 04:56:07;;;;;;;59.33;26.25;;;14.70;99.90;;;;;;5093820;28;20040;-69
2021/07/01 04:58:33;;;;;;;66.30;27.42;;;14.70;99.90;;;;;;5093744;28;20092;-70
2021/07/01 05:00:59;;;;;;;54.45;26.05;;;14.60;99.90;;;;;;5093726;28;20047;-69
2021/07/01 05:03:24;;;;;;;63.67;27.73;;;14.70;99.90;;;;;;5093684;28;20035;-69
2021/07/01 05:05:50;;;;;;;59.58;26.80;;;14.70;99.90;;;;;;5093769;28;20036;-69
2021/07/01 05:08:16;;;;;;;71.40;28.63;;;14.70;99.90;;;;;;5093113;28;20043;-69
2021/07/01 05:10:42;;;;;;;61.25;26.95;;;14.70;99.90;;;;;;5093295;28;20039;-69
2021/07/01 05:13:08;;;;;;;66.07;27.35;;;14.80;99.90;;;;;;5093650;28;20499;-69
2021/07/01 05:15:34;;;;;;;57.92;27.00;;;14.70;99.90;;;;;;5093987;28;20040;-69
2021/07/01 05:18:01;;;;;;;66.40;28.55;;;14.70;99.90;;;;;;5093981;28;20432;-69
2021/07/01 05:20:27;;;;;;;62.35;26.30;;;14.80;99.90;;;;;;5093351;28;20120;-69
2021/07/01 05:22:53;;;;;;;71.68;26.17;;;14.80;99.90;;;;;;5093451;28;20068;-69
2021/07/01 05:25:18;;;;;;;62.65;29.15;;;14.80;99.90;;;;;;5093483;28;20071;-69
2021/07/01 05:27:44;;;;;;;68.60;30.05;;;14.80;99.90;;;;;;5093424;28;20036;-69
2021/07/01 05:30:11;;;;;;;66.35;28.58;;;14.80;99.90;;;;;;5093557;28;20477;-70
2021/07/01 05:32:36;;;;;;;71.85;29.35;;;14.90;99.90;;;;;;5094207;28;20044;-69
2021/07/01 05:35:02;;;;;;;68.90;31.20;;;14.80;99.90;;;;;;5093257;28;20594;-69
2021/07/01 05:37:28;;;;;;;68.30;29.45;;;14.90;99.90;;;;;;5094140;28;20036;-69
2021/07/01 05:39:54;;;;;;;68.20;29.05;;;14.90;99.90;;;;;;5093473;28;20142;-69
2021/07/01 05:42:19;;;;;;;63.85;28.80;;;15.00;99.90;;;;;;5093558;28;20119;-70
2021/07/01 05:44:45;;;;;;;69.47;29.55;;;15.00;99.90;;;;;;5093663;28;20047;-69
2021/07/01 05:47:11;;;;;;;70.03;29.73;;;15.10;99.90;;;;;;5097112;28;20044;-69
2021/07/01 05:49:37;;;;;;;64.28;30.77;;;15.00;99.90;;;;;;5097459;28;20075;-70
2021/07/01 05:52:05;;;;;;;69.90;28.75;;;15.00;99.90;;;;;;5097220;28;20048;-69
2021/07/01 05:54:52;;;;;;;58.10;27.67;;;15.00;99.90;;;;;;5097312;28;20529;-69
2021/07/01 05:57:17;;;;;;;71.07;29.05;;;15.00;99.90;;;;;;5097642;28;20040;-70
2021/07/01 05:59:43;;;;;;;71.32;30.42;;;15.00;99.90;;;;;;5096993;28;20040;-70
2021/07/01 06:02:09;;;;;;;69.95;28.85;;;15.00;99.90;;;;;;5097741;28;20048;-69
2021/07/01 06:04:35;;;;;;;67.88;29.80;;;15.00;99.90;;;;;;5096946;28;20048;-69
2021/07/01 06:07:01;;;;;;;69.93;31.13;;;15.00;99.90;;;;;;5097371;28;20040;-69
2021/07/01 06:09:27;;;;;;;68.47;32.10;;;15.10;99.90;;;;;;5096688;28;20032;-69
2021/07/01 06:11:58;;;;;;;65.18;29.08;;;15.10;99.90;;;;;;5096793;28;20036;-70
2021/07/01 06:14:25;;;;;;;69.90;30.88;;;15.10;99.90;;;;;;5097127;28;20044;-69
2021/07/01 06:16:53;;;;;;;79.10;32.50;;;15.10;99.90;;;;;;5097359;28;20093;-69
2021/07/01 06:19:19;;;;;;;66.32;29.50;;;15.10;99.90;;;;;;5096621;28;20043;-69
2021/07/01 06:21:46;;;;;;;67.20;29.60;;;15.10;99.90;;;;;;5097203;28;20044;-69
2021/07/01 06:24:11;;;;;;;73.50;29.60;;;15.10;99.90;;;;;;5096071;28;20495;-69
2021/07/01 06:26:38;;;;;;;70.35;30.10;;;15.10;99.90;;;;;;5097282;28;20036;-69
2021/07/01 06:29:04;;;;;;;78.85;31.77;;;15.10;99.90;;;;;;5096717;28;20044;-69
2021/07/01 06:31:30;;;;;;;73.10;30.40;;;15.10;99.90;;;;;;5096730;28;20039;-69
2021/07/01 06:33:56;;;;;;;75.38;30.52;;;15.10;99.90;;;;;;5096943;28;20126;-69
2021/07/01 06:36:24;;;;;;;62.90;31.08;;;15.10;99.90;;;;;;5096548;28;20063;-69
2021/07/01 06:38:53;;;;;;;81.20;33.58;;;15.20;99.90;;;;;;5096272;28;20048;-69
2021/07/01 06:41:20;;;;;;;72.85;31.50;;;15.20;99.90;;;;;;5096598;28;20106;-69
2021/07/01 06:43:49;;;;;;;77.15;32.38;;;15.30;99.90;;;;;;5097289;28;20067;-69
2021/07/01 06:46:16;;;;;;;78.22;32.15;;;15.20;99.90;;;;;;5096594;28;20039;-69
2021/07/01 06:48:46;;;;;;;83.15;33.35;;;15.20;99.90;;;;;;5096663;28;20040;-69
2021/07/01 06:51:12;;;;;;;71.57;31.17;;;15.30;99.90;;;;;;5097175;28;20044;-69
2021/07/01 06:53:41;;;;;;;75.03;31.08;;;15.40;99.90;;;;;;5096112;28;20044;-69
2021/07/01 06:56:07;;;;;;;70.38;30.33;;;15.30;99.90;;;;;;5096348;28;20111;-69
2021/07/01 06:58:34;;;;;;;83.28;32.55;;;15.30;99.90;;;;;;5095627;28;20040;-69
2021/07/01 07:01:00;;;;;;;82.45;33.03;;;15.30;99.90;;;;;;5095968;28;20547;-70
2021/07/01 07:03:26;;;;;;;77.05;32.60;;;15.50;99.90;;;;;;5096269;28;20052;-70
2021/07/01 07:05:54;;;;;;;78.80;32.35;;;15.50;99.90;;;;;;5095867;28;20507;-70
2021/07/01 07:08:21;;;;;;;76.90;32.22;;;15.60;99.90;;;;;;5095879;28;20381;-70
2021/07/01 07:10:47;;;;;;;71.43;33.45;;;15.70;99.90;;;;;;5096095;28;20058;-68
2021/07/01 07:13:14;;;;;;;78.68;31.83;;;15.70;99.90;;;;;;5095761;28;20044;-68
2021/07/01 07:15:42;;;;;;;73.50;31.80;;;15.80;99.90;;;;;;5095659;28;20480;-68
2021/07/01 07:18:13;;;;;;;79.88;33.95;;;15.80;99.90;;;;;;5096050;28;20541;-68
2021/07/01 07:20:42;;;;;;;74.85;32.67;;;15.80;99.90;;;;;;5093991;28;20438;-68
2021/07/01 07:23:10;;;;;;;79.10;31.85;;;15.90;99.90;;;;;;5095730;28;20101;-69
2021/07/01 07:25:41;;;;;;;83.43;32.95;;;15.90;99.90;;;;;;5096164;28;20388;-69
2021/07/01 07:28:08;;;;;;;76.13;33.78;;;16.00;99.90;;;;;;5095160;28;20040;-69
2021/07/01 07:30:35;;;;;;;72.53;32.00;;;16.00;99.90;;;;;;5094986;28;20040;-69
2021/07/01 07:33:05;;;;;;;68.30;32.03;;;16.10;99.90;;;;;;5096070;28;20048;-69
2021/07/01 07:35:32;;;;;;;71.55;31.08;;;16.10;99.90;;;;;;5095511;28;20043;-69
2021/07/01 07:37:59;;;;;;;74.07;32.10;;;16.20;99.90;;;;;;5095826;28;20123;-69
2021/07/01 07:40:29;;;;;;;70.32;32.00;;;16.10;99.90;;;;;;5094747;28;20524;-69
2021/07/01 07:42:55;;;;;;;71.55;30.70;;;16.20;99.90;;;;;;5095222;28;20054;-69
2021/07/01 07:45:21;;;;;;;74.80;33.33;;;16.30;99.90;;;;;;5077615;28;20051;-69
2021/07/01 07:47:46;;;;;;;73.40;32.65;;;16.30;99.90;;;;;;5095269;28;20036;-69
2021/07/01 07:50:14;;;;;;;71.95;31.83;;;16.30;99.90;;;;;;5094650;28;20085;-70
2021/07/01 07:52:45;;;;;;;68.03;32.63;;;16.30;99.90;;;;;;5095640;28;20036;-69
2021/07/01 07:55:14;;;;;;;68.95;33.35;;;16.40;99.90;;;;;;5095022;28;20040;-69
2021/07/01 07:57:42;;;;;;;72.97;32.90;;;16.40;99.90;;;;;;5094618;28;20075;-70
2021/07/01 08:00:09;;;;;;;73.38;35.08;;;16.40;99.90;;;;;;5094184;28;20036;-69
2021/07/01 08:02:55;;;;;;;70.75;34.20;;;16.40;99.90;;;;;;5095157;28;20042;-69
2021/07/01 08:05:22;;;;;;;67.63;32.50;;;16.40;99.90;;;;;;5094988;28;20384;-69
2021/07/01 08:07:49;;;;;;;69.22;31.05;;;16.50;99.90;;;;;;5093697;28;20090;-69
2021/07/01 08:10:18;;;;;;;64.88;30.00;;;16.60;99.90;;;;;;5094245;28;20085;-70
2021/07/01 08:12:49;;;;;;;70.35;33.40;;;16.70;99.90;;;;;;5094480;28;20043;-70
2021/07/01 08:15:18;;;;;;;65.82;31.42;;;16.60;99.90;;;;;;5095213;28;20089;-69
2021/07/01 08:17:44;;;;;;;67.05;31.48;;;16.70;99.90;;;;;;5094409;28;20032;-70
2021/07/01 08:20:15;;;;;;;71.32;32.42;;;16.60;99.90;;;;;;5094009;28;20036;-70
2021/07/01 08:22:43;;;;;;;66.05;32.53;;;16.60;99.90;;;;;;5094434;28;20480;-70
2021/07/01 08:25:10;;;;;;;66.05;33.15;;;16.60;99.90;;;;;;5094694;28;20039;-70
2021/07/01 08:27:37;;;;;;;67.65;32.78;;;16.70;99.90;;;;;;5094913;28;20070;-70
2021/07/01 08:30:05;;;;;;;71.40;32.63;;;16.70;99.90;;;;;;5093956;28;20101;-69
2021/07/01 08:32:32;;;;;;;63.22;31.77;;;16.70;99.90;;;;;;5094805;28;20043;-70
2021/07/01 08:35:01;;;;;;;61.53;31.45;;;16.70;99.90;;;;;;5093160;28;20050;-69
2021/07/01 08:37:29;;;;;;;71.10;33.70;;;16.70;99.90;;;;;;5094231;28;20111;-70
2021/07/01 08:39:56;;;;;;;64.80;32.45;;;16.70;99.90;;;;;;5093553;28;20479;-70
2021/07/01 08:42:25;;;;;;;64.97;33.83;;;16.70;99.90;;;;;;5093523;28;20048;-70
2021/07/01 08:45:05;;;;;;;66.75;32.15;;;16.70;99.90;;;;;;5094021;28;20044;-70
2021/07/01 08:47:37;;;;;;;63.08;32.55;;;16.80;99.90;;;;;;5094016;28;20043;-70
2021/07/01 08:50:06;;;;;;;64.43;30.75;;;16.80;99.90;;;;;;5093686;28;20067;-70
2021/07/01 08:52:33;;;;;;;57.78;29.23;;;16.90;99.90;;;;;;5093960;28;20064;-70
2021/07/01 08:55:01;;;;;;;59.92;30.48;;;17.00;99.90;;;;;;5094500;28;20036;-70
2021/07/01 08:57:35;;;;;;;61.83;31.45;;;17.00;99.90;;;;;;5094233;28;20032;-70
2021/07/01 09:00:13;;;;;;;60.53;32.10;;;16.90;99.90;;;;;;5093426;28;20109;-71
2021/07/01 09:02:52;;;;;;;61.78;32.63;;;17.00;99.90;;;;;;5093748;28;20488;-70
2021/07/01 09:05:22;;;;;;;58.67;31.33;;;17.10;99.90;;;;;;5093287;28;20044;-70
2021/07/01 09:07:50;;;;;;;60.05;31.70;;;17.10;99.90;;;;;;5094272;28;20278;-70
2021/07/01 09:10:17;;;;;;;63.10;31.77;;;17.20;99.90;;;;;;5093071;28;20071;-68
2021/07/01 09:12:53;;;;;;;58.33;29.85;;;17.30;99.90;;;;;;5093804;28;20067;-69
2021/07/01 09:15:19;;;;;;;52.97;29.80;;;17.30;99.90;;;;;;5093672;28;20365;-68
2021/07/01 09:17:48;;;;;;;60.53;31.08;;;17.40;99.90;;;;;;5093818;28;20097;-69
2021/07/01 09:20:23;;;;;;;55.08;28.95;;;17.40;99.90;;;;;;5091451;28;20453;-68
2021/07/01 09:22:50;;;;;;;52.10;29.17;;;17.50;99.90;;;;;;5093693;28;20036;-68
2021/07/01 09:25:17;;;;;;;56.50;29.77;;;17.60;99.90;;;;;;5093966;28;20059;-68
2021/07/01 09:27:49;;;;;;;52.17;28.83;;;17.70;99.90;;;;;;5093417;28;20510;-68
2021/07/01 09:30:17;;;;;;;46.33;27.15;;;17.80;99.90;;;;;;5093160;28;20043;-68
2021/07/01 09:32:43;;;;;;;49.72;28.88;;;17.90;99.90;;;;;;5094262;28;20043;-68
2021/07/01 09:35:12;;;;;;;44.63;26.55;;;17.90;99.90;;;;;;5093479;28;20127;-68
2021/07/01 09:37:43;;;;;;;46.15;27.77;;;18.00;99.90;;;;;;5093661;28;20044;-68
2021/07/01 09:40:11;;;;;;;42.85;25.10;;;18.00;99.90;;;;;;5098096;28;20040;-68
2021/07/01 09:42:38;;;;;;;39.03;24.38;;;18.10;99.90;;;;;;5102845;28;20064;-68
2021/07/01 09:45:08;;;;;;;41.47;25.65;;;18.20;99.90;;;;;;5101297;28;20107;-68
2021/07/01 09:47:36;;;;;;;44.83;24.25;;;18.20;99.90;;;;;;5102402;28;20110;-68
2021/07/01 09:50:03;;;;;;;44.85;24.98;;;18.30;99.90;;;;;;5100977;28;20039;-68
2021/07/01 09:52:34;;;;;;;37.15;23.95;;;18.40;99.90;;;;;;5101419;28;20376;-68
2021/07/01 09:55:02;;;;;;;41.65;24.50;;;18.40;99.90;;;;;;5096365;28;20043;-68
2021/07/01 09:57:31;;;;;;;43.63;26.48;;;18.40;99.90;;;;;;5093147;28;20044;-68
2021/07/01 10:00:06;;;;;;;39.85;25.20;;;18.50;99.90;;;;;;5107801;28;20089;-68
2021/07/01 10:02:33;;;;;;;41.70;26.42;;;18.60;99.90;;;;;;5103281;28;20047;-68
2021/07/01 10:04:58;;;;;;;42.97;26.15;;;18.60;99.90;;;;;;5101153;28;20484;-68
2021/07/01 10:07:25;;;;;;;41.85;25.20;;;18.60;99.90;;;;;;5102216;28;20063;-68
2021/07/01 10:09:56;;;;;;;46.28;26.33;;;18.60;99.90;;;;;;5106125;28;20039;-68
2021/07/01 10:12:27;;;;;;;43.95;25.38;;;18.50;99.90;;;;;;5113325;28;20039;-67
2021/07/01 10:15:00;;;;;;;43.67;25.88;;;18.50;99.90;;;;;;5113486;28;20471;-68
2021/07/01 10:17:26;;;;;;;38.20;25.45;;;18.50;99.90;;;;;;5113579;28;20045;-69
2021/07/01 10:20:08;;;;;;;43.72;24.80;;;18.40;99.90;;;;;;5113216;28;20063;-68
2021/07/01 10:22:39;;;;;;;47.47;26.70;;;18.40;99.90;;;;;;5113190;28;20568;-68
2021/07/01 10:25:06;;;;;;;40.13;25.60;;;18.40;99.90;;;;;;5109879;28;20503;-68
2021/07/01 10:27:42;;;;;;;47.30;26.25;;;18.40;99.90;;;;;;5103603;28;20038;-68
2021/07/01 10:30:16;;;;;;;43.55;26.75;;;18.50;99.90;;;;;;5096355;28;20031;-69
2021/07/01 10:32:50;;;;;;;41.83;27.30;;;18.70;99.90;;;;;;5113998;28;20036;-68
2021/07/01 10:35:19;;;;;;;46.47;25.38;;;18.80;99.90;;;;;;5113789;28;20101;-68
2021/07/01 10:38:00;;;;;;;40.33;24.92;;;18.80;99.90;;;;;;5103744;28;20471;-69
2021/07/01 10:40:26;;;;;;;39.42;25.55;;;18.90;99.90;;;;;;5108844;28;20045;-69
2021/07/01 10:42:55;;;;;;;41.95;26.02;;;18.90;99.90;;;;;;5095451;28;20043;-68
2021/07/01 10:45:21;;;;;;;42.13;24.58;;;19.00;99.90;;;;;;5096999;28;20097;-68
2021/07/01 10:47:47;;;;;;;38.22;22.42;;;18.90;99.90;;;;;;5096345;28;20036;-68
2021/07/01 10:50:18;;;;;;;32.33;21.75;;;19.10;99.90;;;;;;5095710;28;20046;-68
2021/07/01 10:52:45;;;;;;;44.42;23.95;;;19.20;99.90;;;;;;5096290;28;20094;-68
2021/07/01 10:55:12;;;;;;;43.70;25.90;;;19.20;99.90;;;;;;5097423;28;20042;-68
2021/07/01 10:58:01;;;;;;;36.40;23.65;;;19.10;99.90;;;;;;5102811;28;20040;-68
2021/07/01 11:00:57;;;;;;;38.22;22.73;;;19.10;99.90;;;;;;5096208;28;20040;-68
2021/07/01 11:03:26;;;;;;;35.85;22.73;;;19.00;99.90;;;;;;5087674;28;20067;-68
2021/07/01 11:05:53;;;;;;;34.08;23.17;;;19.00;99.90;;;;;;5096474;28;20039;-68
2021/07/01 11:08:37;;;;;;;33.88;22.10;;;19.00;99.90;;;;;;5095779;28;20484;-68
2021/07/01 11:11:16;;;;;;;34.30;23.10;;;19.10;99.90;;;;;;5095028;28;20119;-68
2021/07/01 11:13:56;;;;;;;33.65;22.55;;;19.00;99.90;;;;;;5096144;28;20396;-68
2021/07/01 11:16:32;;;;;;;31.20;22.35;;;19.10;99.90;;;;;;5095879;28;20097;-68
2021/07/01 11:18:58;;;;;;;30.63;21.60;;;19.20;99.90;;;;;;5098749;28;20398;-68
2021/07/01 11:21:24;;;;;;;34.63;23.50;;;19.10;99.90;;;;;;5104203;28;20383;-68
2021/07/01 11:24:07;;;;;;;38.42;23.02;;;19.00;99.90;;;;;;5109515;28;20046;-68
2021/07/01 11:26:33;;;;;;;37.10;21.67;;;18.90;99.90;;;;;;5116212;28;20035;-68
2021/07/01 11:29:04;;;;;;;33.13;22.15;;;18.90;99.90;;;;;;5116013;28;20398;-68
2021/07/01 11:31:49;;;;;;;30.85;21.85;;;18.90;99.90;;;;;;5115994;28;20384;-68
2021/07/01 11:34:19;;;;;;;36.90;22.13;;;18.90;99.90;;;;;;5115726;28;20036;-68
2021/07/01 11:36:54;;;;;;;31.17;21.98;;;18.90;99.90;;;;;;5112846;28;20040;-68
2021/07/01 11:39:27;;;;;;;46.92;24.13;;;18.90;99.90;;;;;;5099340;28;20032;-68
2021/07/01 11:41:52;;;;;;;35.40;21.58;;;18.80;99.90;;;;;;5095261;28;20057;-68
2021/07/01 11:44:19;;;;;;;35.95;22.05;;;18.90;99.90;;;;;;5095345;28;20036;-69
2021/07/01 11:46:45;;;;;;;32.35;23.08;;;18.90;99.90;;;;;;5094260;28;20471;-71
2021/07/01 11:49:12;;;;;;;35.22;23.60;;;18.90;99.90;;;;;;5094757;28;20058;-70
2021/07/01 11:51:39;;;;;;;30.35;22.63;;;19.00;99.90;;;;;;5094118;28;20036;-71
2021/07/01 11:54:06;;;;;;;41.00;23.55;;;19.10;99.90;;;;;;5095402;28;20036;-70
2021/07/01 11:59:19;;;;;;;37.65;23.60;;;19.30;99.90;;;;;;5095054;28;20086;-70
2021/07/01 12:01:45;;;;;;;36.63;22.50;;;19.20;99.90;;;;;;5094830;28;20479;-70
2021/07/01 12:04:13;;;;;;;32.92;21.45;;;19.30;99.90;;;;;;5095295;28;20055;-70
2021/07/01 12:07:15;;;;;;;34.00;23.48;;;19.40;99.90;;;;;;5095300;28;20486;-70
2021/07/01 12:09:42;;;;;;;35.20;23.45;;;19.50;99.90;;;;;;5094337;28;20043;-70
2021/07/01 12:12:12;;;;;;;38.63;23.65;;;19.80;99.90;;;;;;5093296;28;20475;-70
2021/07/01 12:15:08;;;;;;;35.80;23.00;;;20.00;99.90;;;;;;5094629;28;20438;-70
2021/07/01 12:17:58;;;;;;;33.03;20.45;;;20.20;99.90;;;;;;5085762;28;20048;-70
2021/07/01 12:20:29;;;;;;;38.20;20.67;;;20.30;99.90;;;;;;5094615;28;20082;-70
2021/07/01 12:22:56;;;;;;;35.03;19.60;;;20.40;99.90;;;;;;5094485;28;20111;-70
2021/07/01 12:25:25;;;;;;;29.13;19.95;;;20.30;99.90;;;;;;5094568;28;20048;-70
2021/07/01 12:28:23;;;;;;;24.48;17.50;;;20.40;99.90;;;;;;5094646;28;20036;-70
2021/07/01 12:31:09;;;;;;;29.40;18.88;;;20.50;99.90;;;;;;5091185;28;20526;-70
2021/07/01 12:33:40;;;;;;;26.35;19.42;;;20.40;99.90;;;;;;5094861;28;20447;-70
2021/07/01 12:36:25;;;;;;;26.33;17.08;;;20.30;99.90;;;;;;5092784;28;20072;-70